createdAt,value
2019-04-14T00:00:14.211Z,1.72
2019-04-14T00:05:21.669Z,2.02
2019-04-14T00:10:31.166Z,1.91
2019-04-14T00:15:45.083Z,2.09
2019-04-14T00:20:49.173Z,1.76
2019-04-14T00:25:57.189Z,1.92
2019-04-14T00:31:08.759Z,2.06
2019-04-14T00:36:08.658Z,1.86
2019-04-14T00:41:16.400Z,1.93
2019-04-14T00:46:25.490Z,1.92
2019-04-14T00:51:37.747Z,2.39
2019-04-14T00:56:43.414Z,1.93
2019-04-14T01:01:52.799Z,1.92
2019-04-14T01:07:02.219Z,2.00
2019-04-14T01:12:10.450Z,2.03
2019-04-14T01:17:19.887Z,1.94
2019-04-14T01:22:29.162Z,2.20
2019-04-14T01:27:36.831Z,1.97
2019-04-14T01:32:46.016Z,2.03
2019-04-14T01:37:55.112Z,2.01
2019-04-14T01:43:04.230Z,2.16
2019-04-14T01:48:13.280Z,1.96
2019-04-14T01:53:22.868Z,2.01
2019-04-14T01:58:31.752Z,1.99
2019-04-14T02:03:40.884Z,1.80
2019-04-14T02:08:48.367Z,1.78
2019-04-14T02:13:57.490Z,2.07
2019-04-14T02:19:06.743Z,2.17
2019-04-14T02:24:16.291Z,2.13
2019-04-14T02:29:25.541Z,2.20
2019-04-14T02:35:08.662Z,2.03
2019-04-14T02:40:08.837Z,2.14
2019-04-14T02:50:27.196Z,2.04
2019-04-14T02:55:29.993Z,2.05
2019-04-14T03:00:50.963Z,2.52
2019-04-14T03:05:54.110Z,2.53
2019-04-14T03:11:04.065Z,2.07
2019-04-14T03:16:17.525Z,2.37
2019-04-14T03:21:21.223Z,2.25
2019-04-14T03:26:25.335Z,2.46
2019-04-14T03:41:52.827Z,2.03
2019-04-14T03:47:08.821Z,2.06
2019-04-14T03:52:03.685Z,2.09
2019-04-14T03:56:53.656Z,2.19
2019-04-14T04:02:01.710Z,2.67
2019-04-14T04:07:10.907Z,2.48
2019-04-14T04:12:20.371Z,2.50
2019-04-14T04:17:29.776Z,2.69
2019-04-14T04:22:37.669Z,2.18
2019-04-14T04:27:46.798Z,2.84
2019-04-14T04:32:55.880Z,2.29
2019-04-14T04:38:05.187Z,2.65
2019-04-14T04:43:14.709Z,2.66
2019-04-14T04:48:24.088Z,2.49
2019-04-14T04:53:31.397Z,2.61
2019-04-14T04:58:41.329Z,2.39
2019-04-14T05:03:49.306Z,2.43
2019-04-14T05:08:59.111Z,2.59
2019-04-14T05:14:06.920Z,2.58
2019-04-14T05:19:25.028Z,2.41
2019-04-14T05:24:24.626Z,2.62
2019-04-14T05:29:34.061Z,2.63
2019-04-14T05:34:43.330Z,2.61
2019-04-14T05:39:50.997Z,2.08
2019-04-14T05:45:00.206Z,2.36
2019-04-14T05:50:09.593Z,2.14
2019-04-14T05:55:17.919Z,2.39
2019-04-14T06:00:27.796Z,2.39
2019-04-14T06:05:36.141Z,2.49
2019-04-14T06:10:44.263Z,2.14
2019-04-14T06:15:53.311Z,2.42
2019-04-14T06:21:02.493Z,2.66
2019-04-14T06:26:11.538Z,2.48
2019-04-14T06:31:20.702Z,2.15
2019-04-14T06:36:29.749Z,2.33
2019-04-14T06:41:39.039Z,2.40
2019-04-14T06:46:48.384Z,2.29
2019-04-14T06:51:57.678Z,2.39
2019-04-14T06:57:06.741Z,2.28
2019-04-14T07:02:15.852Z,2.26
2019-04-14T07:07:24.922Z,2.25
2019-04-14T07:12:34.117Z,2.42
2019-04-14T07:17:43.200Z,2.58
2019-04-14T07:22:52.323Z,2.38
2019-04-14T07:28:01.450Z,2.24
2019-04-14T07:33:10.615Z,2.17
2019-04-14T07:38:19.666Z,2.03
2019-04-14T07:43:28.843Z,2.19
2019-04-14T07:48:37.895Z,1.60
2019-04-14T07:53:47.007Z,2.25
2019-04-14T07:58:56.062Z,2.18
2019-04-14T08:04:05.366Z,2.14
2019-04-14T08:09:14.418Z,2.18
2019-04-14T08:14:23.527Z,2.07
2019-04-14T08:19:32.586Z,2.03
2019-04-14T08:24:41.757Z,1.89
2019-04-14T08:29:50.813Z,1.90
2019-04-14T08:34:59.924Z,1.74
2019-04-14T08:40:08.967Z,1.83
2019-04-14T08:45:18.082Z,1.77
2019-04-14T08:50:38.769Z,1.88
2019-04-14T08:55:35.834Z,1.58
2019-04-14T09:00:44.882Z,1.66
2019-04-14T09:05:54.019Z,1.52
2019-04-14T09:11:03.083Z,1.68
2019-04-14T09:16:12.398Z,1.43
2019-04-14T09:21:21.541Z,1.44
2019-04-14T09:26:30.654Z,1.61
2019-04-14T09:31:39.708Z,1.43
2019-04-14T09:36:48.831Z,1.64
2019-04-14T09:41:57.878Z,1.61
2019-04-14T09:47:06.989Z,1.33
2019-04-14T09:52:16.161Z,1.55
2019-04-14T09:57:25.435Z,1.18
2019-04-14T10:02:34.486Z,1.41
2019-04-14T10:07:43.667Z,1.44
2019-04-14T10:12:52.726Z,1.62
2019-04-14T10:18:02.082Z,1.40
2019-04-14T10:23:11.158Z,1.22
2019-04-14T10:28:20.727Z,1.26
2019-04-14T10:33:29.782Z,1.54
2019-04-14T10:38:38.919Z,1.15
2019-04-14T10:43:48.075Z,1.27
2019-04-14T10:48:57.199Z,1.08
2019-04-14T10:54:06.254Z,1.15
2019-04-14T10:59:15.380Z,0.97
2019-04-14T11:04:24.434Z,1.29
2019-04-14T11:09:33.563Z,1.10
2019-04-14T11:14:42.648Z,1.19
2019-04-14T11:19:51.830Z,1.14
2019-04-14T11:25:00.887Z,0.98
2019-04-14T11:30:10.032Z,1.19
2019-04-14T11:35:19.083Z,1.15
2019-04-14T11:40:28.208Z,1.08
2019-04-14T11:45:37.278Z,0.98
2019-04-14T11:50:46.395Z,1.07
2019-04-14T11:55:55.450Z,0.85
2019-04-14T12:01:04.678Z,1.24
2019-04-14T12:06:13.743Z,0.85
2019-04-14T12:11:22.923Z,1.12
2019-04-14T12:16:31.984Z,1.03
2019-04-14T12:21:41.114Z,1.01
2019-04-14T12:26:50.185Z,0.84
2019-04-14T12:31:59.608Z,1.08
2019-04-14T12:37:07.882Z,0.92
2019-04-14T12:42:17.030Z,0.76
2019-04-14T12:47:26.075Z,1.05
2019-04-14T12:52:35.206Z,1.18
2019-04-14T12:57:44.260Z,1.07
2019-04-14T13:02:53.390Z,1.14
2019-04-14T13:08:02.609Z,1.21
2019-04-14T13:13:11.859Z,0.58
2019-04-14T13:18:20.927Z,1.07
2019-04-14T13:23:30.216Z,1.29
2019-04-14T13:28:39.271Z,1.28
2019-04-14T13:33:48.460Z,1.11
2019-04-14T13:38:57.524Z,1.07
2019-04-14T13:44:06.669Z,1.39
2019-04-14T13:49:16.086Z,1.30
2019-04-14T13:54:25.262Z,1.22
2019-04-14T13:59:34.331Z,1.29
2019-04-14T14:04:43.460Z,1.11
2019-04-14T14:09:52.523Z,1.56
2019-04-14T14:15:01.647Z,1.27
2019-04-14T14:20:10.713Z,0.98
2019-04-14T14:25:19.821Z,1.30
2019-04-14T14:30:28.878Z,1.18
2019-04-14T14:35:38.102Z,1.11
2019-04-14T14:40:49.031Z,1.09
2019-04-14T14:45:55.995Z,1.28
2019-04-14T14:51:05.050Z,0.91
2019-04-14T14:56:14.168Z,1.21
2019-04-14T15:01:23.223Z,1.18
2019-04-14T15:06:32.479Z,1.23
2019-04-14T15:11:41.534Z,0.97
2019-04-14T15:16:50.681Z,1.13
2019-04-14T15:21:59.724Z,1.21
2019-04-14T15:27:08.853Z,1.32
2019-04-14T15:32:18.571Z,1.24
2019-04-14T15:37:27.698Z,1.28
2019-04-14T15:42:36.754Z,1.38
2019-04-14T15:47:45.889Z,1.09
2019-04-14T15:52:54.959Z,1.33
2019-04-14T15:58:04.318Z,1.31
2019-04-14T16:03:16.467Z,1.45
2019-04-14T16:08:15.525Z,1.64
2019-04-14T16:13:24.671Z,1.29
2019-04-14T16:18:34.066Z,1.57
2019-04-14T16:23:50.490Z,1.72
2019-04-14T16:28:51.777Z,1.34
2019-04-14T16:34:00.838Z,1.41
2019-04-14T16:39:09.957Z,1.32
2019-04-14T16:44:19.737Z,1.45
2019-04-14T16:49:28.887Z,1.43
2019-04-14T16:54:37.922Z,1.56
2019-04-14T16:59:47.126Z,1.31
2019-04-14T17:04:56.123Z,1.54
2019-04-14T17:10:05.250Z,1.01
2019-04-14T17:15:14.317Z,1.55
2019-04-14T17:20:24.592Z,1.51
2019-04-14T17:25:23.591Z,1.15
2019-04-14T17:30:32.710Z,1.07
2019-04-14T17:35:42.203Z,1.05
2019-04-14T17:40:51.490Z,1.81
2019-04-14T17:46:00.568Z,1.42
2019-04-14T17:51:09.694Z,1.47
2019-04-14T17:56:19.268Z,1.56
2019-04-14T18:01:28.394Z,1.66
2019-04-14T18:06:37.455Z,1.52
2019-04-14T18:11:46.633Z,1.74
2019-04-14T18:16:55.690Z,1.46
2019-04-14T18:22:03.502Z,1.67
2019-04-14T18:27:12.561Z,1.55
2019-04-14T18:32:21.699Z,1.58
2019-04-14T18:37:30.755Z,1.59
2019-04-14T18:42:39.878Z,1.72
2019-04-14T18:47:48.925Z,1.25
2019-04-14T18:52:58.221Z,1.55
2019-04-14T18:58:07.446Z,1.44
2019-04-14T19:03:16.710Z,1.47
2019-04-14T19:08:25.778Z,1.75
2019-04-14T19:13:34.965Z,1.26
2019-04-14T19:18:44.097Z,1.58
2019-04-14T19:23:53.211Z,1.66
2019-04-14T19:29:02.276Z,1.50
2019-04-14T19:34:11.395Z,1.69
2019-04-14T19:39:20.442Z,1.67
2019-04-14T19:44:29.575Z,1.50
2019-04-14T19:49:38.621Z,1.70
2019-04-14T19:54:47.801Z,1.93
2019-04-14T19:59:56.879Z,1.75
2019-04-14T20:05:06.058Z,1.57
2019-04-14T20:10:15.117Z,1.73
2019-04-14T20:15:24.353Z,1.86
2019-04-14T20:20:33.434Z,1.60
2019-04-14T20:25:42.634Z,1.62
2019-04-14T20:30:51.692Z,1.70
2019-04-14T20:36:00.943Z,1.75
2019-04-14T20:41:09.941Z,1.59
2019-04-14T20:46:19.063Z,1.71
2019-04-14T20:51:28.122Z,1.91
2019-04-14T20:56:37.242Z,1.96
2019-04-14T21:01:46.301Z,2.05
2019-04-14T21:06:55.423Z,2.08
2019-04-14T21:12:04.489Z,1.82
2019-04-14T21:17:13.609Z,1.88
2019-04-14T21:22:22.662Z,1.98
2019-04-14T21:27:31.842Z,1.95
2019-04-14T21:32:41.827Z,2.08
2019-04-14T21:37:51.198Z,1.72
2019-04-14T21:43:00.255Z,1.83
2019-04-14T21:48:09.378Z,1.61
2019-04-14T21:53:18.448Z,1.82
2019-04-14T21:58:27.573Z,1.61
2019-04-14T22:03:36.637Z,1.76
2019-04-14T22:08:46.317Z,1.71
2019-04-14T22:13:55.384Z,1.90
2019-04-14T22:19:04.807Z,1.56
2019-04-14T22:24:13.858Z,1.59
2019-04-14T22:29:22.982Z,1.75
2019-04-14T22:34:32.045Z,1.76
2019-04-14T22:39:41.177Z,1.89
2019-04-14T22:44:50.227Z,1.75
2019-04-14T22:49:59.583Z,1.78
2019-04-14T22:55:08.637Z,1.66
2019-04-14T23:00:17.928Z,1.64
2019-04-14T23:05:27.598Z,1.72
2019-04-14T23:10:36.709Z,2.02
2019-04-14T23:15:45.771Z,1.94
2019-04-14T23:20:54.895Z,1.85
2019-04-14T23:26:03.975Z,1.76
2019-04-14T23:31:13.075Z,1.89
2019-04-14T23:36:22.145Z,1.85
2019-04-14T23:41:31.723Z,1.86
2019-04-14T23:46:40.791Z,1.85
2019-04-14T23:51:49.910Z,1.95
2019-04-14T23:57:05.222Z,2.00
